Time,TemperatureF,DewpointF,PressureIn,WindDirection,WindDirectionDegrees,WindSpeedMPH,WindSpeedGustMPH,Humidity,HourlyPrecipIn,Conditions,Clouds,dailyrainin,SoftwareType,DateUTC
2013-07-23 00:00:00,68.3,66.8,29.83,SSE,159,0.0,2.0,95,0.00,,,0.15,Wunderground v.1.15,2013-07-23 04:00:00,
2013-07-23 00:05:00,68.2,66.7,29.83,SSE,159,0.0,2.0,95,0.00,,,0.00,Wunderground v.1.15,2013-07-23 04:05:00,
2013-07-23 00:10:00,68.3,66.8,29.82,SSE,159,0.0,2.0,95,0.00,,,0.00,Wunderground v.1.15,2013-07-23 04:10:00,
2013-07-23 00:15:00,68.3,66.8,29.82,SW,226,0.0,2.0,95,0.00,,,0.01,Wunderground v.1.15,2013-07-23 04:15:00,
2013-07-23 00:20:00,68.2,66.7,29.82,SW,226,0.0,2.0,95,0.00,,,0.01,Wunderground v.1.15,2013-07-23 04:20:00,
2013-07-23 00:25:00,68.1,66.6,29.82,SW,233,0.0,2.0,95,0.05,,,0.02,Wunderground v.1.15,2013-07-23 04:25:00,
2013-07-23 00:30:00,68.1,66.6,29.82,SW,233,0.0,2.0,95,0.05,,,0.02,Wunderground v.1.15,2013-07-23 04:30:00,
2013-07-23 00:35:00,68.0,66.5,29.82,NNE,25,0.0,2.0,95,0.07,,,0.03,Wunderground v.1.15,2013-07-23 04:35:00,
2013-07-23 00:40:00,67.9,66.4,29.82,NNE,25,0.0,2.0,95,0.07,,,0.03,Wunderground v.1.15,2013-07-23 04:40:00,
2013-07-23 00:45:00,67.9,66.4,29.82,NNE,26,0.0,2.0,95,0.07,,,0.04,Wunderground v.1.15,2013-07-23 04:45:00,
2013-07-23 00:50:00,67.8,66.3,29.82,NNE,25,0.0,2.0,95,0.08,,,0.05,Wunderground v.1.15,2013-07-23 04:50:00,
2013-07-23 00:55:00,67.7,66.2,29.82,NNE,26,0.0,2.0,95,0.08,,,0.05,Wunderground v.1.15,2013-07-23 04:55:00,
2013-07-23 01:00:00,67.7,66.2,29.82,NNE,25,0.0,2.0,95,0.08,,,0.06,Wunderground v.1.15,2013-07-23 05:00:00,
2013-07-23 01:05:00,67.8,66.6,29.81,NNE,25,0.0,2.0,96,0.07,,,0.07,Wunderground v.1.15,2013-07-23 05:05:00,
2013-07-23 01:10:00,67.7,66.2,29.81,NNE,26,0.0,2.0,95,0.07,,,0.07,Wunderground v.1.15,2013-07-23 05:10:00,
2013-07-23 01:15:00,67.7,66.2,29.81,NNE,26,0.0,2.0,95,0.06,,,0.07,Wunderground v.1.15,2013-07-23 05:15:00,
2013-07-23 01:20:00,67.6,66.1,29.81,NNE,25,0.0,2.0,95,0.06,,,0.08,Wunderground v.1.15,2013-07-23 05:20:00,
2013-07-23 01:25:00,67.6,66.4,29.80,NNE,26,0.0,2.0,96,0.06,,,0.08,Wunderground v.1.15,2013-07-23 05:25:00,
2013-07-23 01:30:00,67.5,66.0,29.80,NNE,26,0.0,2.0,95,0.05,,,0.09,Wunderground v.1.15,2013-07-23 05:30:00,
2013-07-23 01:35:00,67.5,66.3,29.80,NNE,25,0.0,2.0,96,0.05,,,0.09,Wunderground v.1.15,2013-07-23 05:35:00,
2013-07-23 01:40:00,67.6,66.4,29.79,NNE,26,0.0,2.0,96,0.05,,,0.10,Wunderground v.1.15,2013-07-23 05:40:00,
2013-07-23 01:45:00,67.7,66.5,29.79,NNE,26,0.0,2.0,96,0.05,,,0.10,Wunderground v.1.15,2013-07-23 05:45:00,
2013-07-23 01:50:00,67.7,66.5,29.79,NNE,25,0.0,2.0,96,0.08,,,0.11,Wunderground v.1.15,2013-07-23 05:50:00,
2013-07-23 01:55:00,67.6,66.4,29.78,NNE,26,0.0,2.0,96,0.07,,,0.11,Wunderground v.1.15,2013-07-23 05:55:00,
2013-07-23 02:00:00,67.6,66.4,29.78,NNE,25,0.0,2.0,96,0.06,,,0.12,Wunderground v.1.15,2013-07-23 06:00:00,
2013-07-23 02:05:00,67.5,66.3,29.78,NNE,26,0.0,2.0,96,0.06,,,0.12,Wunderground v.1.15,2013-07-23 06:05:00,
2013-07-23 02:10:00,67.5,66.3,29.78,NNE,26,0.0,2.0,96,0.06,,,0.13,Wunderground v.1.15,2013-07-23 06:10:00,
2013-07-23 02:15:00,67.5,66.3,29.77,NNE,25,0.0,2.0,96,0.07,,,0.14,Wunderground v.1.15,2013-07-23 06:15:00,
2013-07-23 02:20:00,67.5,66.3,29.77,NNE,25,0.0,2.0,96,0.07,,,0.14,Wunderground v.1.15,2013-07-23 06:20:00,
2013-07-23 02:25:00,67.5,66.3,29.77,NNE,26,0.0,2.0,96,0.05,,,0.14,Wunderground v.1.15,2013-07-23 06:25:00,
2013-07-23 02:30:00,67.5,66.3,29.77,NNE,26,0.0,2.0,96,0.04,,,0.15,Wunderground v.1.15,2013-07-23 06:30:00,
2013-07-23 02:35:00,67.4,66.2,29.77,NNE,26,0.0,2.0,96,0.04,,,0.15,Wunderground v.1.15,2013-07-23 06:35:00,
2013-07-23 02:40:00,67.4,66.2,29.77,NNE,25,0.0,2.0,96,0.08,,,0.16,Wunderground v.1.15,2013-07-23 06:40:00,
2013-07-23 02:45:00,67.4,66.2,29.77,NNE,26,0.0,2.0,96,0.09,,,0.17,Wunderground v.1.15,2013-07-23 06:45:00,
2013-07-23 02:50:00,67.4,66.2,29.76,NNE,25,0.0,2.0,96,0.08,,,0.18,Wunderground v.1.15,2013-07-23 06:50:00,
2013-07-23 02:55:00,67.4,66.2,29.76,NNE,26,0.0,2.0,96,0.08,,,0.18,Wunderground v.1.15,2013-07-23 06:55:00,
2013-07-23 03:00:00,67.3,66.1,29.76,NNE,26,0.0,2.0,96,0.06,,,0.19,Wunderground v.1.15,2013-07-23 07:00:00,
2013-07-23 03:05:00,67.2,66.0,29.76,NNE,25,0.0,2.0,96,0.06,,,0.19,Wunderground v.1.15,2013-07-23 07:05:00,
2013-07-23 03:10:00,67.2,66.0,29.75,NNE,26,0.0,2.0,96,0.06,,,0.19,Wunderground v.1.15,2013-07-23 07:10:00,
2013-07-23 03:15:00,67.2,66.0,29.75,NNE,25,0.0,2.0,96,0.14,,,0.21,Wunderground v.1.15,2013-07-23 07:15:00,
2013-07-23 03:20:00,67.2,66.0,29.75,NNE,25,0.0,2.0,96,0.11,,,0.21,Wunderground v.1.15,2013-07-23 07:20:00,
2013-07-23 03:25:00,67.2,66.0,29.75,NNE,25,0.0,2.0,96,0.07,,,0.22,Wunderground v.1.15,2013-07-23 07:25:00,
2013-07-23 03:30:00,67.1,65.9,29.75,NNE,26,0.0,2.0,96,0.07,,,0.22,Wunderground v.1.15,2013-07-23 07:30:00,
2013-07-23 03:40:00,67.1,65.9,29.75,NNE,26,0.0,2.0,96,0.05,,,0.23,Wunderground v.1.15,2013-07-23 07:40:00,
2013-07-23 03:45:00,67.1,65.9,29.75,NNE,25,0.0,2.0,96,0.05,,,0.23,Wunderground v.1.15,2013-07-23 07:45:00,
2013-07-23 03:50:00,67.0,65.8,29.75,NNE,26,0.0,2.0,96,0.04,,,0.24,Wunderground v.1.15,2013-07-23 07:50:00,
2013-07-23 03:55:00,67.0,65.8,29.75,NNE,25,0.0,2.0,96,0.15,,,0.25,Wunderground v.1.15,2013-07-23 07:55:00,
2013-07-23 04:00:00,67.1,65.9,29.74,NNE,26,0.0,2.0,96,0.15,,,0.26,Wunderground v.1.15,2013-07-23 08:00:00,
2013-07-23 04:05:00,67.1,65.9,29.74,NNE,26,0.0,2.0,96,0.14,,,0.28,Wunderground v.1.15,2013-07-23 08:05:00,
2013-07-23 04:10:00,67.1,65.9,29.74,NNE,26,0.0,2.0,96,0.11,,,0.28,Wunderground v.1.15,2013-07-23 08:10:00,
2013-07-23 04:15:00,67.1,65.9,29.74,NNE,25,0.0,2.0,96,0.10,,,0.29,Wunderground v.1.15,2013-07-23 08:15:00,
2013-07-23 04:20:00,67.0,65.8,29.74,NNE,26,0.0,2.0,96,0.09,,,0.30,Wunderground v.1.15,2013-07-23 08:20:00,
2013-07-23 04:25:00,67.0,65.8,29.74,NNE,25,0.0,2.0,96,0.08,,,0.31,Wunderground v.1.15,2013-07-23 08:25:00,
2013-07-23 04:30:00,66.9,65.7,29.74,NNE,26,0.0,2.0,96,0.08,,,0.31,Wunderground v.1.15,2013-07-23 08:30:00,
2013-07-23 04:35:00,66.9,65.7,29.73,NNE,26,0.0,2.0,96,0.06,,,0.31,Wunderground v.1.15,2013-07-23 08:35:00,
2013-07-23 04:40:00,66.8,65.6,29.73,NNE,26,0.0,2.0,96,0.04,,,0.32,Wunderground v.1.15,2013-07-23 08:40:00,
2013-07-23 04:45:00,66.8,65.6,29.73,NNE,26,0.0,2.0,96,0.04,,,0.32,Wunderground v.1.15,2013-07-23 08:45:00,
2013-07-23 04:50:00,66.7,65.5,29.73,NNE,26,0.0,2.0,96,0.07,,,0.33,Wunderground v.1.15,2013-07-23 08:50:00,
2013-07-23 04:55:00,66.7,65.5,29.73,NNE,26,0.0,2.0,96,0.07,,,0.33,Wunderground v.1.15,2013-07-23 08:55:00,
2013-07-23 05:00:00,66.6,65.4,29.73,NNE,26,0.0,2.0,96,0.06,,,0.34,Wunderground v.1.15,2013-07-23 09:00:00,
2013-07-23 05:05:00,66.6,65.4,29.72,NNE,26,0.0,2.0,96,0.06,,,0.34,Wunderground v.1.15,2013-07-23 09:05:00,
2013-07-23 05:10:00,66.7,65.5,29.72,NNE,25,0.0,2.0,96,0.07,,,0.35,Wunderground v.1.15,2013-07-23 09:10:00,
2013-07-23 05:15:00,66.9,66.0,29.73,NNE,25,0.0,2.0,97,0.08,,,0.36,Wunderground v.1.15,2013-07-23 09:15:00,
2013-07-23 05:20:00,66.9,65.7,29.72,NNE,26,0.0,2.0,96,0.08,,,0.36,Wunderground v.1.15,2013-07-23 09:20:00,
2013-07-23 05:25:00,66.8,65.6,29.73,NNE,26,0.0,2.0,96,0.11,,,0.37,Wunderground v.1.15,2013-07-23 09:25:00,
2013-07-23 05:30:00,66.7,65.5,29.73,NNE,26,0.0,2.0,96,0.09,,,0.38,Wunderground v.1.15,2013-07-23 09:30:00,
2013-07-23 05:35:00,66.8,65.6,29.73,NNE,25,0.0,2.0,96,0.08,,,0.38,Wunderground v.1.15,2013-07-23 09:35:00,
2013-07-23 05:40:00,66.9,65.7,29.73,NNE,26,0.0,2.0,96,0.05,,,0.38,Wunderground v.1.15,2013-07-23 09:40:00,
2013-07-23 05:45:00,66.9,65.7,29.73,NNE,26,0.0,2.0,96,0.04,,,0.39,Wunderground v.1.15,2013-07-23 09:45:00,
2013-07-23 05:50:00,66.9,65.7,29.72,NNE,25,0.0,2.0,96,0.04,,,0.39,Wunderground v.1.15,2013-07-23 09:50:00,
2013-07-23 05:55:00,66.9,65.7,29.73,NNE,26,0.0,2.0,96,0.04,,,0.39,Wunderground v.1.15,2013-07-23 09:55:00,
2013-07-23 06:00:00,66.8,65.6,29.73,NNE,25,0.0,2.0,96,0.00,,,0.39,Wunderground v.1.15,2013-07-23 10:00:00,
2013-07-23 06:05:00,66.8,65.6,29.73,NNE,26,0.0,2.0,96,0.00,,,0.39,Wunderground v.1.15,2013-07-23 10:05:00,
2013-07-23 06:10:00,66.8,65.6,29.73,NNE,26,0.0,2.0,96,0.00,,,0.39,Wunderground v.1.15,2013-07-23 10:10:00,
2013-07-23 06:15:00,66.7,65.5,29.73,NNE,25,0.0,2.0,96,0.00,,,0.40,Wunderground v.1.15,2013-07-23 10:15:00,
2013-07-23 06:20:00,66.7,65.5,29.73,NNE,26,0.0,2.0,96,0.00,,,0.40,Wunderground v.1.15,2013-07-23 10:20:00,
2013-07-23 06:25:00,66.7,65.5,29.73,NNE,25,0.0,2.0,96,0.00,,,0.40,Wunderground v.1.15,2013-07-23 10:25:00,
2013-07-23 06:30:00,66.7,65.8,29.73,NNE,26,0.0,2.0,97,0.00,,,0.40,Wunderground v.1.15,2013-07-23 10:30:00,
2013-07-23 06:35:00,66.7,65.8,29.73,NNE,26,0.0,2.0,97,0.04,,,0.41,Wunderground v.1.15,2013-07-23 10:35:00,
2013-07-23 06:40:00,66.8,65.9,29.73,NNE,25,0.0,2.0,97,0.07,,,0.42,Wunderground v.1.15,2013-07-23 10:40:00,
2013-07-23 06:45:00,66.8,65.6,29.73,NNE,26,0.0,2.0,96,0.07,,,0.42,Wunderground v.1.15,2013-07-23 10:45:00,
2013-07-23 06:50:00,66.7,65.5,29.73,NNE,25,0.0,2.0,96,0.05,,,0.42,Wunderground v.1.15,2013-07-23 10:50:00,
2013-07-23 06:55:00,66.8,65.9,29.73,NNE,25,0.0,2.0,97,0.05,,,0.43,Wunderground v.1.15,2013-07-23 10:55:00,
2013-07-23 07:00:00,66.9,66.0,29.73,NNE,26,0.0,2.0,97,0.07,,,0.44,Wunderground v.1.15,2013-07-23 11:00:00,
2013-07-23 07:05:00,66.9,66.0,29.73,NNE,25,0.0,2.0,97,0.07,,,0.44,Wunderground v.1.15,2013-07-23 11:05:00,
2013-07-23 07:10:00,66.8,65.6,29.73,NNE,26,0.0,2.0,96,0.06,,,0.44,Wunderground v.1.15,2013-07-23 11:10:00,
2013-07-23 07:15:00,66.9,66.0,29.72,NNE,26,0.0,2.0,97,0.04,,,0.44,Wunderground v.1.15,2013-07-23 11:15:00,
2013-07-23 07:20:00,67.0,66.1,29.72,NNE,26,0.0,2.0,97,0.00,,,0.44,Wunderground v.1.15,2013-07-23 11:20:00,
2013-07-23 07:25:00,67.2,66.3,29.73,NNE,26,0.0,2.0,97,0.00,,,0.44,Wunderground v.1.15,2013-07-23 11:25:00,
2013-07-23 07:30:00,67.2,66.3,29.73,NNE,26,0.0,2.0,97,0.00,,,0.44,Wunderground v.1.15,2013-07-23 11:30:00,
2013-07-23 07:35:00,67.2,66.3,29.72,NNE,26,0.0,2.0,97,0.00,,,0.44,Wunderground v.1.15,2013-07-23 11:35:00,
2013-07-23 07:40:00,67.3,66.4,29.72,NNE,26,0.0,2.0,97,0.00,,,0.44,Wunderground v.1.15,2013-07-23 11:40:00,
2013-07-23 07:45:00,67.4,66.5,29.72,NNE,26,0.0,2.0,97,0.00,,,0.44,Wunderground v.1.15,2013-07-23 11:45:00,
2013-07-23 07:50:00,67.5,66.6,29.72,NNW,334,0.0,2.0,97,0.00,,,0.44,Wunderground v.1.15,2013-07-23 11:50:00,
2013-07-23 07:55:00,67.6,66.7,29.72,NNW,335,0.0,2.0,97,0.00,,,0.44,Wunderground v.1.15,2013-07-23 11:55:00,
2013-07-23 08:00:00,67.6,66.7,29.72,NNW,334,0.0,2.0,97,0.00,,,0.44,Wunderground v.1.15,2013-07-23 12:00:00,
2013-07-23 08:05:00,67.7,66.5,29.72,NNW,334,0.0,2.0,96,0.00,,,0.44,Wunderground v.1.15,2013-07-23 12:05:00,
2013-07-23 08:10:00,67.7,66.5,29.72,NNW,335,0.0,2.0,96,0.00,,,0.44,Wunderground v.1.15,2013-07-23 12:10:00,
2013-07-23 08:15:00,67.8,66.6,29.72,NNW,334,0.0,2.0,96,0.00,,,0.44,Wunderground v.1.15,2013-07-23 12:15:00,
2013-07-23 08:20:00,67.8,66.6,29.72,NNW,334,0.0,2.0,96,0.00,,,0.44,Wunderground v.1.15,2013-07-23 12:20:00,
2013-07-23 08:30:00,68.1,66.9,29.72,NNW,334,0.0,2.0,96,0.00,,,0.44,Wunderground v.1.15,2013-07-23 12:30:00,
2013-07-23 08:35:00,67.8,66.6,29.72,NNW,335,0.0,2.0,96,0.00,,,0.44,Wunderground v.1.15,2013-07-23 12:35:00,
2013-07-23 08:40:00,67.9,66.7,29.71,NNW,334,0.0,2.0,96,0.00,,,0.44,Wunderground v.1.15,2013-07-23 12:40:00,
2013-07-23 08:45:00,68.1,66.9,29.72,NNW,334,0.0,2.0,96,0.00,,,0.44,Wunderground v.1.15,2013-07-23 12:45:00,
2013-07-23 08:50:00,67.9,66.4,29.71,NNW,335,0.0,2.0,95,0.00,,,0.44,Wunderground v.1.15,2013-07-23 12:50:00,
2013-07-23 08:55:00,68.2,67.0,29.71,NNW,334,0.0,2.0,96,0.00,,,0.44,Wunderground v.1.15,2013-07-23 12:55:00,
2013-07-23 09:00:00,68.9,67.7,29.71,NNW,335,0.0,2.0,96,0.00,,,0.44,Wunderground v.1.15,2013-07-23 13:00:00,
2013-07-23 09:05:00,69.4,68.2,29.71,NE,34,0.0,2.0,96,0.00,,,0.44,Wunderground v.1.15,2013-07-23 13:05:00,
2013-07-23 09:10:00,70.0,68.5,29.71,NE,37,0.0,2.0,95,0.00,,,0.44,Wunderground v.1.15,2013-07-23 13:10:00,
2013-07-23 09:15:00,70.3,68.2,29.71,NE,37,0.0,2.0,93,0.00,,,0.44,Wunderground v.1.15,2013-07-23 13:15:00,
2013-07-23 09:20:00,70.8,68.4,29.71,NE,37,0.0,2.0,92,0.00,,,0.44,Wunderground v.1.15,2013-07-23 13:20:00,
2013-07-23 09:25:00,70.9,67.8,29.71,NE,37,0.0,2.0,90,0.00,,,0.44,Wunderground v.1.15,2013-07-23 13:25:00,
2013-07-23 09:30:00,71.1,68.0,29.71,NE,37,0.0,2.0,90,0.00,,,0.44,Wunderground v.1.15,2013-07-23 13:30:00,
2013-07-23 09:35:00,71.2,67.8,29.71,NE,37,0.0,2.0,89,0.00,,,0.44,Wunderground v.1.15,2013-07-23 13:35:00,
2013-07-23 09:40:00,71.1,67.4,29.71,NE,37,0.0,2.0,88,0.00,,,0.44,Wunderground v.1.15,2013-07-23 13:40:00,
2013-07-23 09:45:00,70.9,67.5,29.70,NE,37,0.0,2.0,89,0.00,,,0.44,Wunderground v.1.15,2013-07-23 13:45:00,
2013-07-23 09:50:00,70.7,67.0,29.70,NE,37,0.0,2.0,88,0.00,,,0.44,Wunderground v.1.15,2013-07-23 13:50:00,
2013-07-23 09:55:00,70.9,67.5,29.70,NE,37,0.0,2.0,89,0.00,,,0.44,Wunderground v.1.15,2013-07-23 13:55:00,
2013-07-23 10:00:00,71.2,67.8,29.70,NE,37,0.0,2.0,89,0.00,,,0.44,Wunderground v.1.15,2013-07-23 14:00:00,
2013-07-23 10:05:00,71.2,67.8,29.70,NW,320,0.0,2.0,89,0.00,,,0.44,Wunderground v.1.15,2013-07-23 14:05:00,
2013-07-23 10:10:00,71.1,68.0,29.70,WNW,297,1.0,2.0,90,0.00,,,0.44,Wunderground v.1.15,2013-07-23 14:10:00,
2013-07-23 10:15:00,70.9,67.5,29.70,West,277,1.0,2.0,89,0.00,,,0.44,Wunderground v.1.15,2013-07-23 14:15:00,
2013-07-23 10:20:00,70.8,67.4,29.70,WNW,285,1.0,2.0,89,0.00,,,0.44,Wunderground v.1.15,2013-07-23 14:20:00,
2013-07-23 10:25:00,70.7,67.3,29.70,WNW,285,0.0,2.0,89,0.00,,,0.44,Wunderground v.1.15,2013-07-23 14:25:00,
2013-07-23 10:35:00,71.2,67.8,29.70,WNW,285,0.0,2.0,89,0.00,,,0.44,Wunderground v.1.15,2013-07-23 14:35:00,
2013-07-23 10:40:00,71.7,68.6,29.71,WNW,285,0.0,2.0,90,0.00,,,0.44,Wunderground v.1.15,2013-07-23 14:40:00,
2013-07-23 10:45:00,71.7,68.0,29.71,WNW,287,0.0,2.0,88,0.00,,,0.44,Wunderground v.1.15,2013-07-23 14:45:00,
2013-07-23 10:50:00,71.5,68.1,29.71,WNW,290,0.0,2.0,89,0.00,,,0.44,Wunderground v.1.15,2013-07-23 14:50:00,
2013-07-23 10:55:00,71.4,67.7,29.71,NW,314,0.0,2.0,88,0.00,,,0.44,Wunderground v.1.15,2013-07-23 14:55:00,
2013-07-23 11:00:00,71.2,67.5,29.71,WNW,300,0.0,2.0,88,0.00,,,0.44,Wunderground v.1.15,2013-07-23 15:00:00,
2013-07-23 11:05:00,70.9,67.5,29.71,WNW,297,0.0,2.0,89,0.00,,,0.44,Wunderground v.1.15,2013-07-23 15:05:00,
2013-07-23 11:10:00,70.8,67.7,29.71,WNW,297,0.0,2.0,90,0.00,,,0.44,Wunderground v.1.15,2013-07-23 15:10:00,
2013-07-23 11:15:00,70.7,67.6,29.72,WNW,295,0.0,2.0,90,0.00,,,0.44,Wunderground v.1.15,2013-07-23 15:15:00,
2013-07-23 11:20:00,70.9,67.8,29.71,WNW,295,0.0,2.0,90,0.00,,,0.44,Wunderground v.1.15,2013-07-23 15:20:00,
2013-07-23 11:25:00,71.1,68.0,29.71,WNW,295,0.0,2.0,90,0.00,,,0.44,Wunderground v.1.15,2013-07-23 15:25:00,
2013-07-23 11:30:00,71.4,68.3,29.71,ENE,64,0.0,2.0,90,0.00,,,0.44,Wunderground v.1.15,2013-07-23 15:30:00,
2013-07-23 11:40:00,72.4,68.0,29.71,ENE,63,0.0,2.0,86,0.00,,,0.44,Wunderground v.1.15,2013-07-23 15:40:00,
2013-07-23 11:45:00,72.9,68.5,29.71,ENE,63,0.0,2.0,86,0.00,,,0.44,Wunderground v.1.15,2013-07-23 15:45:00,
2013-07-23 11:50:00,73.6,69.2,29.71,ENE,63,0.0,2.0,86,0.00,,,0.44,Wunderground v.1.15,2013-07-23 15:50:00,
2013-07-23 11:55:00,73.7,68.2,29.71,ENE,63,0.0,2.0,83,0.00,,,0.44,Wunderground v.1.15,2013-07-23 15:55:00,
2013-07-23 12:05:00,74.1,69.0,29.71,NW,311,0.0,2.0,84,0.00,,,0.44,Wunderground v.1.15,2013-07-23 16:05:00,
2013-07-23 12:10:00,74.4,68.2,29.71,North,7,0.0,2.0,81,0.00,,,0.44,Wunderground v.1.15,2013-07-23 16:10:00,
2013-07-23 12:15:00,74.7,68.1,29.71,West,270,0.0,2.0,80,0.00,,,0.44,Wunderground v.1.15,2013-07-23 16:15:00,
2013-07-23 12:20:00,75.2,69.0,29.71,NW,304,0.0,2.0,81,0.00,,,0.44,Wunderground v.1.15,2013-07-23 16:20:00,
2013-07-23 12:25:00,75.6,68.3,29.71,NNW,338,1.0,2.0,78,0.00,,,0.44,Wunderground v.1.15,2013-07-23 16:25:00,
2013-07-23 12:30:00,76.1,69.1,29.71,West,281,1.0,2.0,79,0.00,,,0.44,Wunderground v.1.15,2013-07-23 16:30:00,
2013-07-23 12:35:00,77.0,69.6,29.70,NNW,327,1.0,2.0,78,0.00,,,0.44,Wunderground v.1.15,2013-07-23 16:35:00,
2013-07-23 12:40:00,77.4,68.9,29.70,NE,51,1.0,2.0,75,0.00,,,0.44,Wunderground v.1.15,2013-07-23 16:40:00,
2013-07-23 12:45:00,76.9,68.0,29.70,West,280,1.0,2.0,74,0.00,,,0.44,Wunderground v.1.15,2013-07-23 16:45:00,
2013-07-23 12:50:00,76.7,68.6,29.69,West,263,1.0,1.0,76,0.00,,,0.44,Wunderground v.1.15,2013-07-23 16:50:00,
2013-07-23 12:55:00,77.3,68.4,29.69,NE,53,1.0,2.0,74,0.00,,,0.44,Wunderground v.1.15,2013-07-23 16:55:00,
2013-07-23 13:00:00,77.8,68.4,29.69,NNW,334,1.0,2.0,73,0.00,,,0.44,Wunderground v.1.15,2013-07-23 17:00:00,
2013-07-23 13:05:00,78.0,68.2,29.68,WNW,302,1.0,2.0,72,0.00,,,0.44,Wunderground v.1.15,2013-07-23 17:05:00,
2013-07-23 13:10:00,78.5,68.3,29.69,East,94,1.0,2.0,71,0.00,,,0.44,Wunderground v.1.15,2013-07-23 17:10:00,
2013-07-23 13:15:00,78.8,69.4,29.69,West,281,1.0,2.0,73,0.00,,,0.44,Wunderground v.1.15,2013-07-23 17:15:00,
2013-07-23 13:20:00,78.9,69.1,29.69,NW,323,1.0,2.0,72,0.00,,,0.44,Wunderground v.1.15,2013-07-23 17:20:00,
2013-07-23 13:25:00,79.4,68.3,29.69,WNW,282,1.0,3.0,69,0.00,,,0.44,Wunderground v.1.15,2013-07-23 17:25:00,
2013-07-23 13:30:00,79.5,68.4,29.69,WNW,288,1.0,2.0,69,0.00,,,0.44,Wunderground v.1.15,2013-07-23 17:30:00,
2013-07-23 13:35:00,79.9,69.2,29.68,NW,307,1.0,2.0,70,0.00,,,0.44,Wunderground v.1.15,2013-07-23 17:35:00,
2013-07-23 13:40:00,80.1,68.2,29.68,NW,311,1.0,2.0,67,0.00,,,0.44,Wunderground v.1.15,2013-07-23 17:40:00,
2013-07-23 13:45:00,79.9,68.0,29.68,NW,304,1.0,2.0,67,0.00,,,0.44,Wunderground v.1.15,2013-07-23 17:45:00,
2013-07-23 13:50:00,80.1,68.2,29.68,NW,304,1.0,1.0,67,0.00,,,0.44,Wunderground v.1.15,2013-07-23 17:50:00,
2013-07-23 13:55:00,80.2,68.2,29.68,NW,326,1.0,2.0,67,0.00,,,0.44,Wunderground v.1.15,2013-07-23 17:55:00,
2013-07-23 14:00:00,80.6,67.3,29.68,NW,320,1.0,1.0,64,0.00,,,0.44,Wunderground v.1.15,2013-07-23 18:00:00,
2013-07-23 14:05:00,80.9,67.6,29.68,NNW,347,0.0,2.0,64,0.00,,,0.44,Wunderground v.1.15,2013-07-23 18:05:00,
2013-07-23 14:10:00,81.3,68.0,29.68,North,352,1.0,1.0,64,0.00,,,0.44,Wunderground v.1.15,2013-07-23 18:10:00,
2013-07-23 14:15:00,81.0,66.8,29.67,NE,49,1.0,2.0,62,0.00,,,0.44,Wunderground v.1.15,2013-07-23 18:15:00,
2013-07-23 14:20:00,80.7,67.4,29.67,NNW,335,1.0,2.0,64,0.00,,,0.44,Wunderground v.1.15,2013-07-23 18:20:00,
2013-07-23 14:25:00,80.5,68.1,29.67,ENE,73,1.0,2.0,66,0.00,,,0.44,Wunderground v.1.15,2013-07-23 18:25:00,
2013-07-23 14:30:00,80.9,68.5,29.67,NNW,340,1.0,1.0,66,0.00,,,0.44,Wunderground v.1.15,2013-07-23 18:30:00,
2013-07-23 14:35:00,81.0,69.0,29.67,NNW,334,1.0,2.0,67,0.00,,,0.44,Wunderground v.1.15,2013-07-23 18:35:00,
2013-07-23 14:40:00,81.1,69.1,29.67,West,277,1.0,1.0,67,0.00,,,0.44,Wunderground v.1.15,2013-07-23 18:40:00,
2013-07-23 14:45:00,81.0,68.6,29.67,West,278,0.0,2.0,66,0.00,,,0.44,Wunderground v.1.15,2013-07-23 18:45:00,
2013-07-23 14:50:00,80.7,68.7,29.67,WNW,294,0.0,2.0,67,0.00,,,0.44,Wunderground v.1.15,2013-07-23 18:50:00,
2013-07-23 14:55:00,80.7,68.7,29.67,NE,49,1.0,2.0,67,0.00,,,0.44,Wunderground v.1.15,2013-07-23 18:55:00,
2013-07-23 15:00:00,80.9,67.1,29.67,NW,306,1.0,2.0,63,0.00,,,0.44,Wunderground v.1.15,2013-07-23 19:00:00,
2013-07-23 15:05:00,80.9,67.6,29.66,NW,311,1.0,2.0,64,0.00,,,0.44,Wunderground v.1.15,2013-07-23 19:05:00,
2013-07-23 15:15:00,80.6,67.7,29.67,NW,316,2.0,4.0,65,0.00,,,0.44,Wunderground v.1.15,2013-07-23 19:15:00,
2013-07-23 15:20:00,81.2,68.8,29.67,WNW,283,1.0,2.0,66,0.00,,,0.44,Wunderground v.1.15,2013-07-23 19:20:00,
2013-07-23 15:25:00,81.4,67.1,29.67,WNW,284,1.0,2.0,62,0.00,,,0.44,Wunderground v.1.15,2013-07-23 19:25:00,
2013-07-23 15:30:00,81.6,67.8,29.67,NW,304,1.0,2.0,63,0.00,,,0.44,Wunderground v.1.15,2013-07-23 19:30:00,
2013-07-23 15:35:00,81.3,68.0,29.67,WNW,294,1.0,6.0,64,0.00,,,0.44,Wunderground v.1.15,2013-07-23 19:35:00,
2013-07-23 15:40:00,81.1,68.7,29.67,WNW,283,2.0,2.0,66,0.00,,,0.44,Wunderground v.1.15,2013-07-23 19:40:00,
2013-07-23 15:50:00,81.0,67.2,29.66,WNW,285,1.0,2.0,63,0.00,,,0.44,Wunderground v.1.15,2013-07-23 19:50:00,
2013-07-23 15:55:00,80.9,66.7,29.66,WNW,300,1.0,3.0,62,0.00,,,0.44,Wunderground v.1.15,2013-07-23 19:55:00,
2013-07-23 16:00:00,80.8,66.6,29.66,WNW,283,2.0,2.0,62,0.00,,,0.44,Wunderground v.1.15,2013-07-23 20:00:00,
2013-07-23 16:05:00,80.9,67.6,29.66,West,274,2.0,2.0,64,0.00,,,0.44,Wunderground v.1.15,2013-07-23 20:05:00,
2013-07-23 16:25:00,82.5,68.6,29.66,NW,320,1.0,2.0,63,0.00,,,0.44,Wunderground v.1.15,2013-07-23 20:25:00,
2013-07-23 16:30:00,82.7,67.9,29.65,West,266,0.0,2.0,61,0.00,,,0.44,Wunderground v.1.15,2013-07-23 20:30:00,
2013-07-23 16:35:00,82.7,66.9,29.65,WNW,303,1.0,2.0,59,0.00,,,0.44,Wunderground v.1.15,2013-07-23 20:35:00,
2013-07-23 16:40:00,82.3,66.5,29.65,NW,311,1.0,2.0,59,0.00,,,0.44,Wunderground v.1.15,2013-07-23 20:40:00,
2013-07-23 16:45:00,82.4,68.1,29.65,West,281,2.0,2.0,62,0.00,,,0.44,Wunderground v.1.15,2013-07-23 20:45:00,
2013-07-23 16:50:00,82.1,65.9,29.65,WNW,294,2.0,2.0,58,0.00,,,0.44,Wunderground v.1.15,2013-07-23 20:50:00,
2013-07-23 16:55:00,82.3,67.0,29.65,WNW,291,1.0,2.0,60,0.00,,,0.44,Wunderground v.1.15,2013-07-23 20:55:00,
2013-07-23 17:00:00,82.7,67.4,29.65,WNW,291,1.0,2.0,60,0.00,,,0.44,Wunderground v.1.15,2013-07-23 21:00:00,
2013-07-23 17:05:00,82.5,67.2,29.65,WNW,291,1.0,3.0,60,0.00,,,0.44,Wunderground v.1.15,2013-07-23 21:05:00,
2013-07-23 17:10:00,82.2,67.4,29.65,WNW,293,2.0,2.0,61,0.00,,,0.44,Wunderground v.1.15,2013-07-23 21:10:00,
2013-07-23 17:15:00,82.6,67.3,29.64,SW,214,1.0,2.0,60,0.00,,,0.44,Wunderground v.1.15,2013-07-23 21:15:00,
2013-07-23 17:20:00,82.6,68.7,29.64,West,278,1.0,1.0,63,0.00,,,0.44,Wunderground v.1.15,2013-07-23 21:20:00,
2013-07-23 17:25:00,83.0,68.6,29.64,WNW,289,1.0,2.0,62,0.00,,,0.44,Wunderground v.1.15,2013-07-23 21:25:00,
2013-07-23 17:30:00,83.4,68.1,29.64,WNW,293,0.0,2.0,60,0.00,,,0.44,Wunderground v.1.15,2013-07-23 21:30:00,
2013-07-23 17:35:00,82.9,66.6,29.64,WNW,298,1.0,2.0,58,0.00,,,0.44,Wunderground v.1.15,2013-07-23 21:35:00,
2013-07-23 17:40:00,82.9,68.5,29.65,WNW,282,1.0,2.0,62,0.00,,,0.44,Wunderground v.1.15,2013-07-23 21:40:00,
2013-07-23 17:45:00,83.3,68.4,29.64,WNW,283,0.0,2.0,61,0.00,,,0.44,Wunderground v.1.15,2013-07-23 21:45:00,
2013-07-23 17:50:00,83.5,67.7,29.65,WNW,301,0.0,2.0,59,0.00,,,0.44,Wunderground v.1.15,2013-07-23 21:50:00,
2013-07-23 17:55:00,83.6,69.2,29.64,WNW,297,0.0,2.0,62,0.00,,,0.44,Wunderground v.1.15,2013-07-23 21:55:00,
2013-07-23 18:00:00,83.9,69.5,29.64,WNW,297,0.0,2.0,62,0.00,,,0.44,Wunderground v.1.15,2013-07-23 22:00:00,
2013-07-23 18:05:00,84.4,69.5,29.64,WNW,289,0.0,2.0,61,0.00,,,0.44,Wunderground v.1.15,2013-07-23 22:05:00,
2013-07-23 18:15:00,84.0,69.6,29.65,WNW,297,0.0,2.0,62,0.00,,,0.44,Wunderground v.1.15,2013-07-23 22:15:00,
2013-07-23 18:20:00,83.0,67.7,29.65,West,269,1.0,1.0,60,0.00,,,0.44,Wunderground v.1.15,2013-07-23 22:20:00,
2013-07-23 18:25:00,82.6,68.7,29.65,WNW,289,1.0,2.0,63,0.00,,,0.44,Wunderground v.1.15,2013-07-23 22:25:00,
2013-07-23 18:30:00,82.4,68.5,29.65,WNW,291,1.0,2.0,63,0.00,,,0.44,Wunderground v.1.15,2013-07-23 22:30:00,
2013-07-23 18:35:00,82.3,68.4,29.65,NW,311,1.0,2.0,63,0.00,,,0.44,Wunderground v.1.15,2013-07-23 22:35:00,
2013-07-23 18:40:00,82.0,69.1,29.65,WNW,295,1.0,1.0,65,0.00,,,0.44,Wunderground v.1.15,2013-07-23 22:40:00,
2013-07-23 18:45:00,81.9,68.5,29.65,WNW,302,1.0,2.0,64,0.00,,,0.44,Wunderground v.1.15,2013-07-23 22:45:00,
2013-07-23 18:55:00,82.0,68.2,29.65,WNW,283,1.0,2.0,63,0.00,,,0.44,Wunderground v.1.15,2013-07-23 22:55:00,
2013-07-23 19:00:00,82.2,69.3,29.65,WSW,251,1.0,2.0,65,0.00,,,0.44,Wunderground v.1.15,2013-07-23 23:00:00,
2013-07-23 19:05:00,81.6,67.8,29.65,WNW,292,1.0,2.0,63,0.00,,,0.44,Wunderground v.1.15,2013-07-23 23:05:00,
2013-07-23 19:10:00,81.0,68.1,29.65,WNW,293,0.0,2.0,65,0.00,,,0.44,Wunderground v.1.15,2013-07-23 23:10:00,
2013-07-23 19:15:00,80.7,69.2,29.64,WNW,293,0.0,2.0,68,0.00,,,0.44,Wunderground v.1.15,2013-07-23 23:15:00,
2013-07-23 19:20:00,80.2,69.5,29.65,WNW,293,0.0,2.0,70,0.00,,,0.44,Wunderground v.1.15,2013-07-23 23:20:00,
2013-07-23 19:25:00,79.2,68.6,29.65,WNW,292,0.0,2.0,70,0.00,,,0.44,Wunderground v.1.15,2013-07-23 23:25:00,
2013-07-23 19:30:00,78.4,67.4,29.65,WNW,293,0.0,2.0,69,0.00,,,0.44,Wunderground v.1.15,2013-07-23 23:30:00,
2013-07-23 19:35:00,77.7,68.7,29.65,WNW,293,0.0,2.0,74,0.00,,,0.44,Wunderground v.1.15,2013-07-23 23:35:00,
2013-07-23 19:40:00,77.1,68.9,29.65,WNW,293,0.0,2.0,76,0.00,,,0.44,Wunderground v.1.15,2013-07-23 23:40:00,
2013-07-23 19:45:00,76.4,68.3,29.65,WNW,293,0.0,2.0,76,0.00,,,0.44,Wunderground v.1.15,2013-07-23 23:45:00,
2013-07-23 19:50:00,75.6,67.9,29.64,WNW,293,0.0,2.0,77,0.00,,,0.44,Wunderground v.1.15,2013-07-23 23:50:00,
2013-07-23 19:55:00,75.1,67.8,29.65,WNW,293,0.0,2.0,78,0.00,,,0.44,Wunderground v.1.15,2013-07-23 23:55:00,
2013-07-23 20:05:00,74.2,68.3,29.65,WNW,293,0.0,2.0,82,0.00,,,0.44,Wunderground v.1.15,2013-07-24 00:05:00,
2013-07-23 20:10:00,73.9,68.4,29.65,WNW,293,0.0,2.0,83,0.00,,,0.44,Wunderground v.1.15,2013-07-24 00:10:00,
2013-07-23 20:15:00,73.5,68.7,29.65,SSW,212,0.0,2.0,85,0.00,,,0.44,Wunderground v.1.15,2013-07-24 00:15:00,
2013-07-23 20:20:00,73.1,68.3,29.65,SSW,212,0.0,2.0,85,0.00,,,0.44,Wunderground v.1.15,2013-07-24 00:20:00,
2013-07-23 20:25:00,72.7,67.9,29.65,SSW,212,0.0,2.0,85,0.00,,,0.44,Wunderground v.1.15,2013-07-24 00:25:00,
2013-07-23 20:30:00,72.4,67.6,29.65,SSW,212,0.0,2.0,85,0.00,,,0.44,Wunderground v.1.15,2013-07-24 00:30:00,
2013-07-23 20:35:00,72.0,67.2,29.65,SSW,212,0.0,2.0,85,0.00,,,0.44,Wunderground v.1.15,2013-07-24 00:35:00,
2013-07-23 20:40:00,71.8,67.4,29.65,SSW,212,0.0,2.0,86,0.00,,,0.44,Wunderground v.1.15,2013-07-24 00:40:00,
2013-07-23 20:50:00,71.3,66.2,29.65,SSE,165,0.0,2.0,84,0.00,,,0.44,Wunderground v.1.15,2013-07-24 00:50:00,
2013-07-23 20:55:00,71.3,66.2,29.65,SSE,165,0.0,2.0,84,0.00,,,0.44,Wunderground v.1.15,2013-07-24 00:55:00,
2013-07-23 21:00:00,71.2,66.5,29.65,SSE,165,0.0,2.0,85,0.00,,,0.44,Wunderground v.1.15,2013-07-24 01:00:00,
2013-07-23 21:05:00,70.8,65.7,29.65,SSE,165,0.0,2.0,84,0.00,,,0.44,Wunderground v.1.15,2013-07-24 01:05:00,
2013-07-23 21:10:00,70.5,65.8,29.65,SSE,165,0.0,2.0,85,0.00,,,0.44,Wunderground v.1.15,2013-07-24 01:10:00,
2013-07-23 21:15:00,70.4,66.0,29.66,SSE,165,0.0,2.0,86,0.00,,,0.44,Wunderground v.1.15,2013-07-24 01:15:00,
2013-07-23 21:20:00,70.2,66.1,29.66,SSE,165,0.0,2.0,87,0.00,,,0.44,Wunderground v.1.15,2013-07-24 01:20:00,
2013-07-23 21:25:00,69.9,66.2,29.67,SSE,165,0.0,2.0,88,0.00,,,0.44,Wunderground v.1.15,2013-07-24 01:25:00,
2013-07-23 21:30:00,69.6,65.9,29.67,SSE,165,0.0,2.0,88,0.00,,,0.44,Wunderground v.1.15,2013-07-24 01:30:00,
2013-07-23 21:35:00,69.4,66.0,29.67,SSE,165,0.0,2.0,89,0.00,,,0.44,Wunderground v.1.15,2013-07-24 01:35:00,
2013-07-23 21:40:00,69.3,65.9,29.67,WNW,287,0.0,2.0,89,0.00,,,0.44,Wunderground v.1.15,2013-07-24 01:40:00,
2013-07-23 21:45:00,69.1,65.7,29.67,WNW,287,0.0,2.0,89,0.00,,,0.44,Wunderground v.1.15,2013-07-24 01:45:00,
2013-07-23 21:50:00,68.9,65.8,29.67,WNW,287,0.0,2.0,90,0.00,,,0.44,Wunderground v.1.15,2013-07-24 01:50:00,
2013-07-23 21:55:00,68.7,65.6,29.67,WNW,287,0.0,2.0,90,0.00,,,0.44,Wunderground v.1.15,2013-07-24 01:55:00,
2013-07-23 22:00:00,68.6,65.9,29.67,WNW,287,0.0,2.0,91,0.00,,,0.44,Wunderground v.1.15,2013-07-24 02:00:00,
2013-07-23 22:05:00,68.3,65.6,29.67,WNW,287,0.0,2.0,91,0.00,,,0.44,Wunderground v.1.15,2013-07-24 02:05:00,
2013-07-23 22:15:00,68.2,65.5,29.68,WNW,287,0.0,2.0,91,0.00,,,0.44,Wunderground v.1.15,2013-07-24 02:15:00,
2013-07-23 22:20:00,68.4,66.0,29.67,WNW,287,0.0,2.0,92,0.00,,,0.44,Wunderground v.1.15,2013-07-24 02:20:00,
2013-07-23 22:25:00,68.4,66.0,29.67,WNW,287,0.0,2.0,92,0.00,,,0.44,Wunderground v.1.15,2013-07-24 02:25:00,
2013-07-23 22:30:00,68.3,65.9,29.68,WNW,287,0.0,2.0,92,0.00,,,0.44,Wunderground v.1.15,2013-07-24 02:30:00,
2013-07-23 22:35:00,68.3,65.9,29.68,WNW,287,0.0,2.0,92,0.00,,,0.44,Wunderground v.1.15,2013-07-24 02:35:00,
2013-07-23 22:45:00,68.3,65.9,29.68,SW,226,0.0,2.0,92,0.00,,,0.44,Wunderground v.1.15,2013-07-24 02:45:00,
2013-07-23 22:50:00,68.3,66.2,29.68,SW,226,0.0,2.0,93,0.00,,,0.44,Wunderground v.1.15,2013-07-24 02:50:00,
2013-07-23 22:55:00,68.3,66.2,29.68,SSE,167,0.0,2.0,93,0.00,,,0.44,Wunderground v.1.15,2013-07-24 02:55:00,
2013-07-23 23:00:00,68.3,66.2,29.68,SW,226,0.0,2.0,93,0.00,,,0.44,Wunderground v.1.15,2013-07-24 03:00:00,
2013-07-23 23:05:00,68.3,66.2,29.67,SW,226,0.0,2.0,93,0.00,,,0.44,Wunderground v.1.15,2013-07-24 03:05:00,
2013-07-23 23:10:00,68.4,66.3,29.68,SW,225,0.0,2.0,93,0.00,,,0.44,Wunderground v.1.15,2013-07-24 03:10:00,
2013-07-23 23:15:00,68.3,66.2,29.68,SSW,209,1.0,2.0,93,0.00,,,0.44,Wunderground v.1.15,2013-07-24 03:15:00,
2013-07-23 23:20:00,68.3,66.2,29.68,SW,217,2.0,2.0,93,0.00,,,0.44,Wunderground v.1.15,2013-07-24 03:20:00,
2013-07-23 23:25:00,68.3,66.2,29.68,SW,214,2.0,2.0,93,0.00,,,0.44,Wunderground v.1.15,2013-07-24 03:25:00,
2013-07-23 23:30:00,68.3,66.2,29.68,SW,214,1.0,1.0,93,0.00,,,0.44,Wunderground v.1.15,2013-07-24 03:30:00,
2013-07-23 23:35:00,68.3,66.2,29.68,SSW,207,1.0,5.0,93,0.00,,,0.44,Wunderground v.1.15,2013-07-24 03:35:00,
2013-07-23 23:40:00,68.3,66.2,29.68,SW,215,1.0,2.0,93,0.00,,,0.44,Wunderground v.1.15,2013-07-24 03:40:00,
2013-07-23 23:45:00,68.2,66.1,29.68,SSW,193,1.0,2.0,93,0.00,,,0.44,Wunderground v.1.15,2013-07-24 03:45:00,
2013-07-23 23:50:00,68.2,66.1,29.68,SSW,208,1.0,2.0,93,0.00,,,0.44,Wunderground v.1.15,2013-07-24 03:50:00,
2013-07-23 23:55:00,68.2,66.1,29.68,SW,231,1.0,2.0,93,0.00,,,0.44,Wunderground v.1.15,2013-07-24 03:55:00,